sensor_id;sensor_type;location;lat;lon;timestamp;temperature;humidity
11577;DHT22;5844;51.496;6.788;2023-04-01T00:00:42;10.00;99.90
11577;DHT22;5844;51.496;6.788;2023-04-01T00:03:10;10.00;99.90
11577;DHT22;5844;51.496;6.788;2023-04-01T00:05:37;10.00;99.90
11577;DHT22;5844;51.496;6.788;2023-04-01T00:08:02;10.00;99.90
11577;DHT22;5844;51.496;6.788;2023-04-01T00:10:28;10.00;99.90
11577;DHT22;5844;51.496;6.788;2023-04-01T00:12:54;10.00;99.90
11577;DHT22;5844;51.496;6.788;2023-04-01T00:15:19;10.00;99.90
11577;DHT22;5844;51.496;6.788;2023-04-01T00:17:46;10.00;99.90
11577;DHT22;5844;51.496;6.788;2023-04-01T00:20:11;10.00;99.90
11577;DHT22;5844;51.496;6.788;2023-04-01T00:22:37;10.10;99.90
11577;DHT22;5844;51.496;6.788;2023-04-01T00:25:04;10.10;99.90
11577;DHT22;5844;51.496;6.788;2023-04-01T00:27:31;10.00;99.90
11577;DHT22;5844;51.496;6.788;2023-04-01T00:29:56;10.10;99.90
11577;DHT22;5844;51.496;6.788;2023-04-01T00:32:22;10.10;99.90
11577;DHT22;5844;51.496;6.788;2023-04-01T00:34:50;10.00;99.90
11577;DHT22;5844;51.496;6.788;2023-04-01T00:37:17;10.00;99.90
11577;DHT22;5844;51.496;6.788;2023-04-01T00:39:43;10.10;99.90
11577;DHT22;5844;51.496;6.788;2023-04-01T00:42:10;10.10;99.90
11577;DHT22;5844;51.496;6.788;2023-04-01T00:44:38;10.10;99.90
11577;DHT22;5844;51.496;6.788;2023-04-01T00:47:03;10.10;99.90
11577;DHT22;5844;51.496;6.788;2023-04-01T00:49:39;10.10;99.90
11577;DHT22;5844;51.496;6.788;2023-04-01T00:52:07;10.10;99.90
11577;DHT22;5844;51.496;6.788;2023-04-01T00:54:34;10.10;99.90
11577;DHT22;5844;51.496;6.788;2023-04-01T00:57:15;10.10;99.90
11577;DHT22;5844;51.496;6.788;2023-04-01T00:59:46;10.00;99.90
11577;DHT22;5844;51.496;6.788;2023-04-01T01:02:14;10.00;99.90
11577;DHT22;5844;51.496;6.788;2023-04-01T01:04:41;10.00;99.90
11577;DHT22;5844;51.496;6.788;2023-04-01T01:07:33;10.00;99.90
11577;DHT22;5844;51.496;6.788;2023-04-01T01:15:47;9.90;99.90
11577;DHT22;5844;51.496;6.788;2023-04-01T01:18:34;9.90;99.90
11577;DHT22;5844;51.496;6.788;2023-04-01T01:26:39;9.90;99.90
11577;DHT22;5844;51.496;6.788;2023-04-01T01:35:19;9.90;99.90
11577;DHT22;5844;51.496;6.788;2023-04-01T01:37:46;9.90;99.90
11577;DHT22;5844;51.496;6.788;2023-04-01T01:40:15;9.90;99.90
11577;DHT22;5844;51.496;6.788;2023-04-01T01:42:46;9.90;99.90
11577;DHT22;5844;51.496;6.788;2023-04-01T01:45:14;10.00;99.90
11577;DHT22;5844;51.496;6.788;2023-04-01T01:47:43;10.00;99.90
11577;DHT22;5844;51.496;6.788;2023-04-01T01:50:11;10.00;99.90
11577;DHT22;5844;51.496;6.788;2023-04-01T01:52:38;10.00;99.90
11577;DHT22;5844;51.496;6.788;2023-04-01T01:55:22;10.00;99.90
11577;DHT22;5844;51.496;6.788;2023-04-01T01:57:48;10.00;99.90
11577;DHT22;5844;51.496;6.788;2023-04-01T02:00:16;9.90;99.90
11577;DHT22;5844;51.496;6.788;2023-04-01T02:02:45;10.00;99.90
11577;DHT22;5844;51.496;6.788;2023-04-01T02:05:19;10.00;99.90
11577;DHT22;5844;51.496;6.788;2023-04-01T02:07:52;10.00;99.90
11577;DHT22;5844;51.496;6.788;2023-04-01T02:10:21;10.00;99.90
11577;DHT22;5844;51.496;6.788;2023-04-01T02:12:48;10.10;99.90
11577;DHT22;5844;51.496;6.788;2023-04-01T02:15:15;10.00;99.90
11577;DHT22;5844;51.496;6.788;2023-04-01T02:17:44;10.00;99.90
11577;DHT22;5844;51.496;6.788;2023-04-01T02:20:15;10.00;99.90
11577;DHT22;5844;51.496;6.788;2023-04-01T02:22:51;10.00;99.90
11577;DHT22;5844;51.496;6.788;2023-04-01T02:25:27;10.00;99.90
11577;DHT22;5844;51.496;6.788;2023-04-01T02:27:55;10.00;99.90
11577;DHT22;5844;51.496;6.788;2023-04-01T02:30:22;10.00;99.90
11577;DHT22;5844;51.496;6.788;2023-04-01T02:32:49;9.90;99.90
11577;DHT22;5844;51.496;6.788;2023-04-01T02:35:16;9.90;99.90
11577;DHT22;5844;51.496;6.788;2023-04-01T02:37:48;10.00;99.90
11577;DHT22;5844;51.496;6.788;2023-04-01T02:40:15;9.90;99.90
11577;DHT22;5844;51.496;6.788;2023-04-01T02:42:41;9.90;99.90
11577;DHT22;5844;51.496;6.788;2023-04-01T02:45:08;9.90;99.90
11577;DHT22;5844;51.496;6.788;2023-04-01T02:47:34;9.90;99.90
11577;DHT22;5844;51.496;6.788;2023-04-01T02:49:59;9.90;99.90
11577;DHT22;5844;51.496;6.788;2023-04-01T02:52:26;9.90;99.90
11577;DHT22;5844;51.496;6.788;2023-04-01T02:54:52;9.80;99.90
11577;DHT22;5844;51.496;6.788;2023-04-01T02:57:18;9.90;99.90
11577;DHT22;5844;51.496;6.788;2023-04-01T02:59:44;9.80;99.90
11577;DHT22;5844;51.496;6.788;2023-04-01T03:02:09;9.80;99.90
11577;DHT22;5844;51.496;6.788;2023-04-01T03:04:35;9.80;99.90
11577;DHT22;5844;51.496;6.788;2023-04-01T03:07:01;9.80;99.90
11577;DHT22;5844;51.496;6.788;2023-04-01T03:09:27;9.80;99.90
11577;DHT22;5844;51.496;6.788;2023-04-01T03:11:54;9.80;99.90
11577;DHT22;5844;51.496;6.788;2023-04-01T03:14:20;9.80;99.90
11577;DHT22;5844;51.496;6.788;2023-04-01T03:16:45;9.80;99.90
11577;DHT22;5844;51.496;6.788;2023-04-01T03:19:11;9.80;99.90
11577;DHT22;5844;51.496;6.788;2023-04-01T03:21:37;9.80;99.90
11577;DHT22;5844;51.496;6.788;2023-04-01T03:24:03;9.80;99.90
11577;DHT22;5844;51.496;6.788;2023-04-01T03:26:29;9.80;99.90
11577;DHT22;5844;51.496;6.788;2023-04-01T03:28:55;9.80;99.90
11577;DHT22;5844;51.496;6.788;2023-04-01T03:31:21;9.90;99.90
11577;DHT22;5844;51.496;6.788;2023-04-01T03:33:47;9.90;99.90
11577;DHT22;5844;51.496;6.788;2023-04-01T03:36:13;9.90;99.90
11577;DHT22;5844;51.496;6.788;2023-04-01T03:38:40;9.90;99.90
11577;DHT22;5844;51.496;6.788;2023-04-01T03:41:06;9.90;99.90
11577;DHT22;5844;51.496;6.788;2023-04-01T03:43:32;9.90;99.90
11577;DHT22;5844;51.496;6.788;2023-04-01T03:45:58;9.90;99.90
11577;DHT22;5844;51.496;6.788;2023-04-01T03:48:24;9.90;99.90
11577;DHT22;5844;51.496;6.788;2023-04-01T03:50:51;9.90;99.90
11577;DHT22;5844;51.496;6.788;2023-04-01T03:53:17;9.90;99.90
11577;DHT22;5844;51.496;6.788;2023-04-01T03:55:42;9.90;99.90
11577;DHT22;5844;51.496;6.788;2023-04-01T03:58:08;10.00;99.90
11577;DHT22;5844;51.496;6.788;2023-04-01T04:00:34;9.90;99.90
11577;DHT22;5844;51.496;6.788;2023-04-01T04:03:00;9.90;99.90
11577;DHT22;5844;51.496;6.788;2023-04-01T04:05:26;9.90;99.90
11577;DHT22;5844;51.496;6.788;2023-04-01T04:07:53;9.90;99.90
11577;DHT22;5844;51.496;6.788;2023-04-01T04:10:19;9.90;99.90
11577;DHT22;5844;51.496;6.788;2023-04-01T04:12:46;9.90;99.90
11577;DHT22;5844;51.496;6.788;2023-04-01T04:15:12;9.90;99.90
11577;DHT22;5844;51.496;6.788;2023-04-01T04:17:37;9.90;99.90
11577;DHT22;5844;51.496;6.788;2023-04-01T04:20:03;9.90;99.90
11577;DHT22;5844;51.496;6.788;2023-04-01T04:22:29;9.90;99.90
11577;DHT22;5844;51.496;6.788;2023-04-01T04:24:55;9.90;99.90
11577;DHT22;5844;51.496;6.788;2023-04-01T04:27:21;9.90;99.90
11577;DHT22;5844;51.496;6.788;2023-04-01T04:29:47;9.90;99.90
11577;DHT22;5844;51.496;6.788;2023-04-01T04:32:13;9.90;99.90
11577;DHT22;5844;51.496;6.788;2023-04-01T04:34:38;9.90;99.90
11577;DHT22;5844;51.496;6.788;2023-04-01T04:37:04;9.90;99.90
11577;DHT22;5844;51.496;6.788;2023-04-01T04:39:29;9.90;99.90
11577;DHT22;5844;51.496;6.788;2023-04-01T04:41:55;10.00;99.90
11577;DHT22;5844;51.496;6.788;2023-04-01T04:44:21;9.90;99.90
11577;DHT22;5844;51.496;6.788;2023-04-01T04:46:46;9.90;99.90
11577;DHT22;5844;51.496;6.788;2023-04-01T04:49:12;9.90;99.90
11577;DHT22;5844;51.496;6.788;2023-04-01T04:51:38;9.90;99.90
11577;DHT22;5844;51.496;6.788;2023-04-01T04:54:04;9.90;99.90
11577;DHT22;5844;51.496;6.788;2023-04-01T04:56:30;9.90;99.90
11577;DHT22;5844;51.496;6.788;2023-04-01T04:58:56;9.90;99.90
11577;DHT22;5844;51.496;6.788;2023-04-01T05:01:22;9.90;99.90
11577;DHT22;5844;51.496;6.788;2023-04-01T05:03:47;9.90;99.90
11577;DHT22;5844;51.496;6.788;2023-04-01T05:06:15;9.80;99.90
11577;DHT22;5844;51.496;6.788;2023-04-01T05:08:42;10.00;99.90
11577;DHT22;5844;51.496;6.788;2023-04-01T05:11:12;9.90;99.90
11577;DHT22;5844;51.496;6.788;2023-04-01T05:13:38;10.00;99.90
11577;DHT22;5844;51.496;6.788;2023-04-01T05:16:07;9.90;99.90
11577;DHT22;5844;51.496;6.788;2023-04-01T05:18:32;9.90;99.90
11577;DHT22;5844;51.496;6.788;2023-04-01T05:20:58;10.00;99.90
11577;DHT22;5844;51.496;6.788;2023-04-01T05:23:23;9.90;99.90
11577;DHT22;5844;51.496;6.788;2023-04-01T05:25:49;9.90;99.90
11577;DHT22;5844;51.496;6.788;2023-04-01T05:28:16;9.90;99.90
11577;DHT22;5844;51.496;6.788;2023-04-01T05:30:43;9.80;99.90
11577;DHT22;5844;51.496;6.788;2023-04-01T05:33:10;9.80;99.90
11577;DHT22;5844;51.496;6.788;2023-04-01T05:35:36;9.90;99.90
11577;DHT22;5844;51.496;6.788;2023-04-01T05:38:02;9.80;99.90
11577;DHT22;5844;51.496;6.788;2023-04-01T05:40:28;9.90;99.90
11577;DHT22;5844;51.496;6.788;2023-04-01T05:42:54;9.90;99.90
11577;DHT22;5844;51.496;6.788;2023-04-01T05:45:19;9.80;99.90
11577;DHT22;5844;51.496;6.788;2023-04-01T05:47:45;9.80;99.90
11577;DHT22;5844;51.496;6.788;2023-04-01T05:50:11;9.80;99.90
11577;DHT22;5844;51.496;6.788;2023-04-01T05:52:37;9.80;99.90
11577;DHT22;5844;51.496;6.788;2023-04-01T05:55:03;9.90;99.90
11577;DHT22;5844;51.496;6.788;2023-04-01T05:57:29;9.80;99.90
11577;DHT22;5844;51.496;6.788;2023-04-01T05:59:55;9.80;99.90
11577;DHT22;5844;51.496;6.788;2023-04-01T06:02:21;9.80;99.90
11577;DHT22;5844;51.496;6.788;2023-04-01T06:04:46;9.80;99.90
11577;DHT22;5844;51.496;6.788;2023-04-01T06:07:17;9.80;99.90
11577;DHT22;5844;51.496;6.788;2023-04-01T06:09:44;9.90;99.90
11577;DHT22;5844;51.496;6.788;2023-04-01T06:27:49;9.90;99.90
11577;DHT22;5844;51.496;6.788;2023-04-01T06:30:34;9.90;99.90
11577;DHT22;5844;51.496;6.788;2023-04-01T06:38:30;9.90;99.90
11577;DHT22;5844;51.496;6.788;2023-04-01T06:49:28;9.90;99.90
11577;DHT22;5844;51.496;6.788;2023-04-01T06:54:32;9.90;99.90
11577;DHT22;5844;51.496;6.788;2023-04-01T06:57:34;9.90;99.90
11577;DHT22;5844;51.496;6.788;2023-04-01T07:05:25;9.90;99.90
11577;DHT22;5844;51.496;6.788;2023-04-01T07:07:58;9.90;99.90
11577;DHT22;5844;51.496;6.788;2023-04-01T07:13:29;9.90;99.90
11577;DHT22;5844;51.496;6.788;2023-04-01T07:24:43;10.00;99.90
11577;DHT22;5844;51.496;6.788;2023-04-01T07:27:11;9.90;99.90
11577;DHT22;5844;51.496;6.788;2023-04-01T07:29:37;9.90;99.90
11577;DHT22;5844;51.496;6.788;2023-04-01T07:37:00;10.00;99.90
11577;DHT22;5844;51.496;6.788;2023-04-01T07:39:53;9.90;99.90
11577;DHT22;5844;51.496;6.788;2023-04-01T07:45:20;9.90;99.90
11577;DHT22;5844;51.496;6.788;2023-04-01T07:48:12;9.90;99.90
11577;DHT22;5844;51.496;6.788;2023-04-01T07:51:03;10.00;99.90
11577;DHT22;5844;51.496;6.788;2023-04-01T07:53:47;10.00;99.90
11577;DHT22;5844;51.496;6.788;2023-04-01T08:01:20;10.00;99.90
11577;DHT22;5844;51.496;6.788;2023-04-01T08:06:47;9.90;99.90
11577;DHT22;5844;51.496;6.788;2023-04-01T08:12:52;10.00;99.90
11577;DHT22;5844;51.496;6.788;2023-04-01T08:21:01;10.00;99.90
11577;DHT22;5844;51.496;6.788;2023-04-01T08:23:37;10.00;99.90
11577;DHT22;5844;51.496;6.788;2023-04-01T08:26:13;10.00;99.90
11577;DHT22;5844;51.496;6.788;2023-04-01T08:31:39;10.00;99.90
11577;DHT22;5844;51.496;6.788;2023-04-01T08:34:18;10.00;99.90
11577;DHT22;5844;51.496;6.788;2023-04-01T08:36:50;10.10;99.90
11577;DHT22;5844;51.496;6.788;2023-04-01T08:42:37;10.10;99.90
11577;DHT22;5844;51.496;6.788;2023-04-01T08:57:01;10.10;99.90
11577;DHT22;5844;51.496;6.788;2023-04-01T09:11:07;10.30;99.90
11577;DHT22;5844;51.496;6.788;2023-04-01T09:21:45;10.50;99.90
11577;DHT22;5844;51.496;6.788;2023-04-01T09:24:24;10.50;99.90
11577;DHT22;5844;51.496;6.788;2023-04-01T09:27:00;10.50;99.90
11577;DHT22;5844;51.496;6.788;2023-04-01T09:35:34;10.60;99.90
11577;DHT22;5844;51.496;6.788;2023-04-01T09:41:29;10.60;99.90
11577;DHT22;5844;51.496;6.788;2023-04-01T09:44:03;10.60;99.90
11577;DHT22;5844;51.496;6.788;2023-04-01T09:46:52;10.60;99.90
11577;DHT22;5844;51.496;6.788;2023-04-01T10:00:38;10.60;99.90
11577;DHT22;5844;51.496;6.788;2023-04-01T10:11:49;10.70;99.90
11577;DHT22;5844;51.496;6.788;2023-04-01T10:14:47;10.70;99.90
11577;DHT22;5844;51.496;6.788;2023-04-01T10:29:06;10.70;99.90
11577;DHT22;5844;51.496;6.788;2023-04-01T10:40:37;10.70;99.90
11577;DHT22;5844;51.496;6.788;2023-04-01T11:01:27;11.00;99.90
11577;DHT22;5844;51.496;6.788;2023-04-01T11:12:03;11.00;99.90
11577;DHT22;5844;51.496;6.788;2023-04-01T11:14:50;10.90;99.90
11577;DHT22;5844;51.496;6.788;2023-04-01T11:17:41;10.90;99.90
11577;DHT22;5844;51.496;6.788;2023-04-01T11:23:01;10.90;99.90
11577;DHT22;5844;51.496;6.788;2023-04-01T11:31:50;11.00;99.90
11577;DHT22;5844;51.496;6.788;2023-04-01T11:39:56;10.90;99.90
11577;DHT22;5844;51.496;6.788;2023-04-01T11:42:30;10.90;99.90
11577;DHT22;5844;51.496;6.788;2023-04-01T11:45:37;11.00;99.90
11577;DHT22;5844;51.496;6.788;2023-04-01T11:58:59;11.20;99.90
11577;DHT22;5844;51.496;6.788;2023-04-01T12:01:43;11.20;99.90
11577;DHT22;5844;51.496;6.788;2023-04-01T12:04:44;11.20;99.90
11577;DHT22;5844;51.496;6.788;2023-04-01T12:07:25;11.30;99.90
11577;DHT22;5844;51.496;6.788;2023-04-01T12:12:42;11.30;99.90
11577;DHT22;5844;51.496;6.788;2023-04-01T12:18:16;11.40;99.90
11577;DHT22;5844;51.496;6.788;2023-04-01T12:20:50;11.40;99.90
11577;DHT22;5844;51.496;6.788;2023-04-01T12:26:22;11.30;99.90
11577;DHT22;5844;51.496;6.788;2023-04-01T12:52:45;11.10;99.90
11577;DHT22;5844;51.496;6.788;2023-04-01T12:58:30;11.10;99.90
11577;DHT22;5844;51.496;6.788;2023-04-01T13:01:22;11.10;99.90
11577;DHT22;5844;51.496;6.788;2023-04-01T13:07:14;11.10;99.90
11577;DHT22;5844;51.496;6.788;2023-04-01T13:12:47;11.20;99.90
11577;DHT22;5844;51.496;6.788;2023-04-01T13:19:30;11.30;99.90
11577;DHT22;5844;51.496;6.788;2023-04-01T13:24:39;11.30;99.90
11577;DHT22;5844;51.496;6.788;2023-04-01T13:32:47;11.10;99.90
11577;DHT22;5844;51.496;6.788;2023-04-01T13:35:33;11.10;99.90
11577;DHT22;5844;51.496;6.788;2023-04-01T13:40:49;11.00;99.90
11577;DHT22;5844;51.496;6.788;2023-04-01T13:43:26;11.00;99.90
11577;DHT22;5844;51.496;6.788;2023-04-01T13:51:39;10.90;99.90
11577;DHT22;5844;51.496;6.788;2023-04-01T13:57:22;11.00;99.90
11577;DHT22;5844;51.496;6.788;2023-04-01T14:14:24;11.20;99.90
11577;DHT22;5844;51.496;6.788;2023-04-01T14:17:10;11.20;99.90
11577;DHT22;5844;51.496;6.788;2023-04-01T14:22:18;11.10;99.90
11577;DHT22;5844;51.496;6.788;2023-04-01T14:25:25;11.20;99.90
11577;DHT22;5844;51.496;6.788;2023-04-01T14:41:16;11.20;99.90
11577;DHT22;5844;51.496;6.788;2023-04-01T14:49:24;11.20;99.90
11577;DHT22;5844;51.496;6.788;2023-04-01T14:52:16;11.30;99.90
11577;DHT22;5844;51.496;6.788;2023-04-01T14:54:48;11.40;99.90
11577;DHT22;5844;51.496;6.788;2023-04-01T14:59:51;11.40;99.90
11577;DHT22;5844;51.496;6.788;2023-04-01T15:10:52;11.30;99.90
11577;DHT22;5844;51.496;6.788;2023-04-01T15:22:44;11.30;99.90
11577;DHT22;5844;51.496;6.788;2023-04-01T15:28:28;11.30;99.90
11577;DHT22;5844;51.496;6.788;2023-04-01T15:34:23;11.40;99.90
11577;DHT22;5844;51.496;6.788;2023-04-01T15:37:11;11.40;99.90
11577;DHT22;5844;51.496;6.788;2023-04-01T15:39:57;11.30;99.90
11577;DHT22;5844;51.496;6.788;2023-04-01T15:52:23;11.30;99.90
11577;DHT22;5844;51.496;6.788;2023-04-01T16:03:09;11.30;99.90
11577;DHT22;5844;51.496;6.788;2023-04-01T16:19:49;11.00;99.90
11577;DHT22;5844;51.496;6.788;2023-04-01T16:22:34;11.10;99.90
11577;DHT22;5844;51.496;6.788;2023-04-01T16:25:20;11.00;99.90
11577;DHT22;5844;51.496;6.788;2023-04-01T16:30:43;10.90;99.90
11577;DHT22;5844;51.496;6.788;2023-04-01T16:38:43;10.80;99.90
11577;DHT22;5844;51.496;6.788;2023-04-01T16:41:36;10.80;99.90
11577;DHT22;5844;51.496;6.788;2023-04-01T16:44:18;10.80;99.90
11577;DHT22;5844;51.496;6.788;2023-04-01T16:47:27;10.90;99.90
11577;DHT22;5844;51.496;6.788;2023-04-01T16:50:13;10.90;99.90
11577;DHT22;5844;51.496;6.788;2023-04-01T16:55:21;11.00;99.90
11577;DHT22;5844;51.496;6.788;2023-04-01T16:57:52;10.90;99.90
11577;DHT22;5844;51.496;6.788;2023-04-01T17:00:28;10.90;99.90
11577;DHT22;5844;51.496;6.788;2023-04-01T17:03:13;10.90;99.90
11577;DHT22;5844;51.496;6.788;2023-04-01T17:05:54;10.90;99.90
11577;DHT22;5844;51.496;6.788;2023-04-01T17:08:34;10.80;99.90
11577;DHT22;5844;51.496;6.788;2023-04-01T17:14:28;10.80;99.90
11577;DHT22;5844;51.496;6.788;2023-04-01T17:17:38;10.80;99.90
11577;DHT22;5844;51.496;6.788;2023-04-01T17:20:07;10.80;99.90
11577;DHT22;5844;51.496;6.788;2023-04-01T17:23:01;10.80;99.90
11577;DHT22;5844;51.496;6.788;2023-04-01T17:25:35;10.80;99.90
11577;DHT22;5844;51.496;6.788;2023-04-01T17:36:39;10.80;99.90
11577;DHT22;5844;51.496;6.788;2023-04-01T17:41:56;10.80;99.90
11577;DHT22;5844;51.496;6.788;2023-04-01T17:50:07;10.80;99.90
11577;DHT22;5844;51.496;6.788;2023-04-01T17:52:44;10.80;99.90
11577;DHT22;5844;51.496;6.788;2023-04-01T17:58:19;10.80;99.90
11577;DHT22;5844;51.496;6.788;2023-04-01T18:04:05;10.80;99.90
11577;DHT22;5844;51.496;6.788;2023-04-01T18:14:59;10.80;99.90
11577;DHT22;5844;51.496;6.788;2023-04-01T18:17:53;10.80;99.90
11577;DHT22;5844;51.496;6.788;2023-04-01T18:26:29;10.80;99.90
11577;DHT22;5844;51.496;6.788;2023-04-01T18:29:02;10.80;99.90
11577;DHT22;5844;51.496;6.788;2023-04-01T18:31:40;10.80;99.90
11577;DHT22;5844;51.496;6.788;2023-04-01T18:36:59;10.80;99.90
11577;DHT22;5844;51.496;6.788;2023-04-01T18:39:46;10.80;99.90
11577;DHT22;5844;51.496;6.788;2023-04-01T18:45:31;10.80;99.90
11577;DHT22;5844;51.496;6.788;2023-04-01T18:50:53;10.80;99.90
11577;DHT22;5844;51.496;6.788;2023-04-01T18:56:07;10.80;99.90
11577;DHT22;5844;51.496;6.788;2023-04-01T18:58:35;10.80;99.90
11577;DHT22;5844;51.496;6.788;2023-04-01T19:04:36;10.80;99.90
11577;DHT22;5844;51.496;6.788;2023-04-01T19:09:53;10.70;99.90
11577;DHT22;5844;51.496;6.788;2023-04-01T19:12:50;10.70;99.90
11577;DHT22;5844;51.496;6.788;2023-04-01T19:15:27;10.70;99.90
11577;DHT22;5844;51.496;6.788;2023-04-01T19:18:16;10.70;99.90
11577;DHT22;5844;51.496;6.788;2023-04-01T19:23:29;10.60;99.90
11577;DHT22;5844;51.496;6.788;2023-04-01T19:25:59;10.60;99.90
11577;DHT22;5844;51.496;6.788;2023-04-01T19:31:44;10.50;99.90
11577;DHT22;5844;51.496;6.788;2023-04-01T19:37:20;10.50;99.90
11577;DHT22;5844;51.496;6.788;2023-04-01T19:42:37;10.40;99.90
11577;DHT22;5844;51.496;6.788;2023-04-01T19:47:57;10.40;99.90
11577;DHT22;5844;51.496;6.788;2023-04-01T19:50:46;10.30;99.90
11577;DHT22;5844;51.496;6.788;2023-04-01T19:53:37;10.30;99.90
11577;DHT22;5844;51.496;6.788;2023-04-01T19:56:19;10.20;99.90
11577;DHT22;5844;51.496;6.788;2023-04-01T20:01:52;10.20;99.90
11577;DHT22;5844;51.496;6.788;2023-04-01T20:04:32;10.10;99.90
11577;DHT22;5844;51.496;6.788;2023-04-01T20:07:16;10.00;99.90
11577;DHT22;5844;51.496;6.788;2023-04-01T20:12:53;10.00;99.90
11577;DHT22;5844;51.496;6.788;2023-04-01T20:15:43;9.90;99.90
11577;DHT22;5844;51.496;6.788;2023-04-01T20:18:19;9.90;99.90
11577;DHT22;5844;51.496;6.788;2023-04-01T20:20:57;9.90;99.90
11577;DHT22;5844;51.496;6.788;2023-04-01T20:24:14;10.90;99.90
11577;DHT22;5844;51.496;6.788;2023-04-01T20:26:35;9.90;99.90
11577;DHT22;5844;51.496;6.788;2023-04-01T20:34:44;9.80;99.90
11577;DHT22;5844;51.496;6.788;2023-04-01T20:37:32;9.70;99.90
11577;DHT22;5844;51.496;6.788;2023-04-01T20:40:28;9.70;99.90
11577;DHT22;5844;51.496;6.788;2023-04-01T20:43:22;9.80;99.90
11577;DHT22;5844;51.496;6.788;2023-04-01T20:46:22;9.70;99.90
11577;DHT22;5844;51.496;6.788;2023-04-01T20:57:34;9.60;99.90
11577;DHT22;5844;51.496;6.788;2023-04-01T21:03:37;9.40;99.90
11577;DHT22;5844;51.496;6.788;2023-04-01T21:15:14;9.30;99.90
11577;DHT22;5844;51.496;6.788;2023-04-01T21:17:52;9.30;99.90
11577;DHT22;5844;51.496;6.788;2023-04-01T21:20:43;9.30;99.90
11577;DHT22;5844;51.496;6.788;2023-04-01T21:23:19;9.30;99.90
11577;DHT22;5844;51.496;6.788;2023-04-01T21:31:59;9.10;99.90
11577;DHT22;5844;51.496;6.788;2023-04-01T21:34:48;9.10;99.90
11577;DHT22;5844;51.496;6.788;2023-04-01T21:40:17;9.10;99.90
11577;DHT22;5844;51.496;6.788;2023-04-01T21:43:04;9.00;99.90
11577;DHT22;5844;51.496;6.788;2023-04-01T21:51:12;8.90;99.90
11577;DHT22;5844;51.496;6.788;2023-04-01T22:07:23;8.70;99.90
11577;DHT22;5844;51.496;6.788;2023-04-01T22:16:11;8.60;99.90
11577;DHT22;5844;51.496;6.788;2023-04-01T22:23:46;8.50;99.90
11577;DHT22;5844;51.496;6.788;2023-04-01T22:28:59;8.40;99.90
11577;DHT22;5844;51.496;6.788;2023-04-01T22:31:36;8.40;99.90
11577;DHT22;5844;51.496;6.788;2023-04-01T22:34:20;8.30;99.90
11577;DHT22;5844;51.496;6.788;2023-04-01T22:42:52;8.30;99.90
11577;DHT22;5844;51.496;6.788;2023-04-01T22:45:38;8.30;99.90
11577;DHT22;5844;51.496;6.788;2023-04-01T22:48:28;8.30;99.90
11577;DHT22;5844;51.496;6.788;2023-04-01T22:56:27;8.30;99.90
11577;DHT22;5844;51.496;6.788;2023-04-01T22:59:11;8.30;99.90
11577;DHT22;5844;51.496;6.788;2023-04-01T23:01:47;8.30;99.90
11577;DHT22;5844;51.496;6.788;2023-04-01T23:04:16;8.20;99.90
11577;DHT22;5844;51.496;6.788;2023-04-01T23:06:48;8.10;99.90
11577;DHT22;5844;51.496;6.788;2023-04-01T23:09:30;8.10;99.90
11577;DHT22;5844;51.496;6.788;2023-04-01T23:12:07;8.10;99.90
11577;DHT22;5844;51.496;6.788;2023-04-01T23:17:41;8.00;99.90
11577;DHT22;5844;51.496;6.788;2023-04-01T23:20:21;8.00;99.90
11577;DHT22;5844;51.496;6.788;2023-04-01T23:23:26;8.00;99.90
11577;DHT22;5844;51.496;6.788;2023-04-01T23:28:53;7.90;99.90
11577;DHT22;5844;51.496;6.788;2023-04-01T23:31:35;7.80;99.90
11577;DHT22;5844;51.496;6.788;2023-04-01T23:34:17;7.80;99.90
11577;DHT22;5844;51.496;6.788;2023-04-01T23:36:47;7.70;99.90
11577;DHT22;5844;51.496;6.788;2023-04-01T23:42:03;7.70;99.90
11577;DHT22;5844;51.496;6.788;2023-04-01T23:44:31;8.20;99.90
11577;DHT22;5844;51.496;6.788;2023-04-01T23:46:59;7.80;99.90
11577;DHT22;5844;51.496;6.788;2023-04-01T23:52:16;7.60;99.90
11577;DHT22;5844;51.496;6.788;2023-04-01T23:57:37;7.60;99.90
